Terminal Aerodrome Forecast
Issued by NWS

Home | Current Version | Previous Version | Text Only | Print | Product List | Glossary On
Versions: 1 2 3 4 5 6 7 8 9 10 11 12
000
FTAK31 PAJN 282300
TAFAJN
TAF
PAJN 282330Z 2900/2924 24006KT P6SM -RA SCT010 BKN040 OVC080
      TEMPO 2902/2906 6SM -RA BR BKN010 OVC025
     FM290900 VRB04KT P6SM -RA SCT020 OVC040
     FM291800 13006KT P6SM -RA SCT025 OVC050
     FM292100 10005KT P6SM -RA OVC050=

USA.gov is the U.S. government's official web portal to all federal, state and local government web resources and services.